createdAt,value
2022-10-17T00:00:13.497Z,98603.19
2022-10-17T00:02:42.219Z,98600.97
2022-10-17T00:05:13.317Z,98605.78
2022-10-17T00:07:43.323Z,98606.59
2022-10-17T00:10:11.850Z,98611.25
2022-10-17T00:12:40.883Z,98619.16
2022-10-17T00:15:12.445Z,98612.63
2022-10-17T00:17:42.150Z,98606.16
2022-10-17T00:20:13.857Z,98610.59
2022-10-17T00:22:46.075Z,98610.16
2022-10-17T00:25:15.297Z,98615.41
2022-10-17T00:27:44.474Z,98609.94
2022-10-17T00:30:17.158Z,98605.69
2022-10-17T00:32:46.093Z,98602.63
2022-10-17T00:35:14.750Z,98609.69
2022-10-17T00:37:46.487Z,98604.81
2022-10-17T00:40:15.527Z,98611.06
2022-10-17T00:42:44.221Z,98611.72
2022-10-17T00:45:24.114Z,98608.44
2022-10-17T00:48:00.131Z,98609.25
2022-10-17T00:50:29.796Z,98613.66
2022-10-17T00:53:05.996Z,98607.16
2022-10-17T00:55:44.272Z,98604.09
2022-10-17T00:58:13.216Z,98609.16
2022-10-17T01:00:43.292Z,98605.47
2022-10-17T01:03:12.054Z,98604.84
2022-10-17T01:05:43.558Z,98604.25
2022-10-17T01:08:14.924Z,98602.22
2022-10-17T01:11:02.573Z,98602.22
2022-10-17T01:13:44.503Z,98598.34
2022-10-17T01:16:25.144Z,98607.00
2022-10-17T01:19:08.914Z,98602.94
2022-10-17T01:21:54.625Z,98611.44
2022-10-17T01:25:03.501Z,98612.25
2022-10-17T01:28:21.305Z,98614.84
2022-10-17T01:31:13.113Z,98616.94
2022-10-17T01:34:04.517Z,98619.34
2022-10-17T01:36:43.136Z,98621.00
2022-10-17T01:39:22.445Z,98620.16
2022-10-17T01:41:59.487Z,98624.59
2022-10-17T01:44:38.084Z,98627.06
2022-10-17T01:47:14.466Z,98615.31
2022-10-17T01:49:47.110Z,98612.84
2022-10-17T01:52:21.714Z,98615.03
2022-10-17T01:54:55.840Z,98608.75
2022-10-17T01:57:34.368Z,98606.66
2022-10-17T02:00:07.639Z,98603.50
2022-10-17T02:02:39.169Z,98606.50
2022-10-17T02:05:10.667Z,98608.47
2022-10-17T02:07:41.986Z,98599.00
2022-10-17T02:10:34.631Z,98596.16
2022-10-17T02:13:17.475Z,98600.59
2022-10-17T02:16:08.997Z,98598.34
2022-10-17T02:19:21.805Z,98586.88
2022-10-17T02:22:01.643Z,98579.75
2022-10-17T02:24:41.007Z,98591.63
2022-10-17T02:27:19.735Z,98594.25
2022-10-17T02:29:55.740Z,98598.50
2022-10-17T02:32:34.356Z,98595.66
2022-10-17T02:35:10.150Z,98595.66
2022-10-17T02:37:42.648Z,98599.13
2022-10-17T02:40:16.554Z,98601.72
2022-10-17T02:42:48.105Z,98601.50
2022-10-17T02:45:18.642Z,98592.00
2022-10-17T02:47:58.792Z,98592.00
2022-10-17T02:50:44.370Z,98589.53
2022-10-17T02:53:21.894Z,98586.84
2022-10-17T02:56:01.507Z,98591.13
2022-10-17T02:58:36.309Z,98590.28
2022-10-17T03:01:08.024Z,98591.13
2022-10-17T03:03:37.213Z,98599.16
2022-10-17T03:06:07.516Z,98594.50
2022-10-17T03:08:36.143Z,98598.28
2022-10-17T03:11:04.674Z,98601.53
2022-10-17T03:13:36.352Z,98605.97
2022-10-17T03:16:10.114Z,98602.72
2022-10-17T03:18:38.612Z,98601.09
2022-10-17T03:21:09.319Z,98607.94
2022-10-17T03:23:37.841Z,98598.66
2022-10-17T03:26:08.275Z,98603.09
2022-10-17T03:28:37.350Z,98607.72
2022-10-17T03:31:11.025Z,98610.34
2022-10-17T03:33:39.777Z,98608.91
2022-10-17T03:36:11.968Z,98608.69
2022-10-17T03:38:41.145Z,98612.34
2022-10-17T03:41:10.821Z,98614.31
2022-10-17T03:43:41.452Z,98606.28
2022-10-17T03:46:09.881Z,98607.09
2022-10-17T03:48:39.910Z,98610.50
2022-10-17T03:51:12.508Z,98622.56
2022-10-17T03:53:41.366Z,98626.38
2022-10-17T03:56:17.328Z,98623.69
2022-10-17T03:58:47.365Z,98629.53
2022-10-17T04:01:19.279Z,98626.91
2022-10-17T04:03:51.733Z,98631.19
2022-10-17T04:06:23.887Z,98640.03
2022-10-17T04:08:52.514Z,98633.97
2022-10-17T04:11:23.440Z,98633.53
2022-10-17T04:13:55.940Z,98634.50
2022-10-17T04:16:25.716Z,98641.16
2022-10-17T04:18:56.841Z,98638.69
2022-10-17T04:21:28.992Z,98638.69
2022-10-17T04:23:59.374Z,98640.50
2022-10-17T04:26:29.606Z,98630.00
2022-10-17T04:28:58.395Z,98630.81
2022-10-17T04:31:27.451Z,98627.75
2022-10-17T04:33:56.026Z,98627.84
2022-10-17T04:36:26.731Z,98632.31
2022-10-17T04:38:55.275Z,98635.25
2022-10-17T04:41:24.387Z,98644.97
2022-10-17T04:43:53.073Z,98639.72
2022-10-17T04:46:22.551Z,98637.09
2022-10-17T04:48:51.566Z,98631.19
2022-10-17T04:51:23.246Z,98630.94
2022-10-17T04:53:57.554Z,98635.38
2022-10-17T04:56:26.844Z,98634.56
2022-10-17T04:58:55.266Z,98630.31
2022-10-17T05:01:25.251Z,98624.59
2022-10-17T05:03:57.731Z,98631.19
2022-10-17T05:06:28.844Z,98638.28
2022-10-17T05:09:01.923Z,98640.25
2022-10-17T05:11:31.758Z,98637.63
2022-10-17T05:14:04.062Z,98635.38
2022-10-17T05:16:35.951Z,98630.94
2022-10-17T05:19:05.180Z,98628.31
2022-10-17T05:21:37.457Z,98634.19
2022-10-17T05:24:11.283Z,98636.00
2022-10-17T05:26:41.370Z,98629.31
2022-10-17T05:29:10.421Z,98623.25
2022-10-17T05:31:40.186Z,98627.69
2022-10-17T05:34:11.618Z,98633.28
2022-10-17T05:36:45.263Z,98636.63
2022-10-17T05:39:19.873Z,98636.00
2022-10-17T05:41:49.226Z,98642.41
2022-10-17T05:44:18.379Z,98644.84
2022-10-17T05:46:50.722Z,98640.13
2022-10-17T05:49:32.674Z,98637.84
2022-10-17T05:52:09.753Z,98636.56
2022-10-17T05:54:40.410Z,98651.47
2022-10-17T05:57:10.271Z,98649.69
2022-10-17T05:59:39.210Z,98648.25
2022-10-17T06:02:08.843Z,98649.06
2022-10-17T06:04:38.274Z,98651.03
2022-10-17T06:07:08.071Z,98647.63
2022-10-17T06:12:14.513Z,98649.06
2022-10-17T06:14:43.881Z,98650.41
2022-10-17T06:17:15.991Z,98665.94
2022-10-17T06:19:45.507Z,98659.25
2022-10-17T06:22:15.206Z,98654.66
2022-10-17T06:24:51.249Z,98659.88
2022-10-17T06:27:22.192Z,98667.09
2022-10-17T06:29:52.546Z,98660.25
2022-10-17T06:32:21.774Z,98661.84
2022-10-17T06:34:52.777Z,98666.13
2022-10-17T06:37:22.043Z,98670.38
2022-10-17T06:39:54.117Z,98682.81
2022-10-17T06:42:22.817Z,98689.84
2022-10-17T06:44:52.753Z,98697.53
2022-10-17T06:47:21.759Z,98702.44
2022-10-17T06:49:51.457Z,98710.59
2022-10-17T06:52:20.560Z,98709.56
2022-10-17T06:54:53.999Z,98715.28
2022-10-17T06:57:25.430Z,98725.41
2022-10-17T06:59:56.001Z,98731.13
2022-10-17T07:02:25.277Z,98717.69
2022-10-17T07:04:54.632Z,98718.16
2022-10-17T07:07:25.276Z,98727.47
2022-10-17T07:09:56.153Z,98729.72
2022-10-17T07:12:38.340Z,98738.19
2022-10-17T07:15:08.584Z,98744.47
2022-10-17T07:17:37.181Z,98742.09
2022-10-17T07:20:06.927Z,98746.00
2022-10-17T07:22:36.764Z,98741.38
2022-10-17T07:25:09.382Z,98752.16
2022-10-17T07:27:38.182Z,98751.78
2022-10-17T07:30:10.236Z,98755.06
2022-10-17T07:32:39.293Z,98750.09
2022-10-17T07:35:09.849Z,98754.59
2022-10-17T07:37:39.737Z,98757.69
2022-10-17T07:40:12.830Z,98749.66
2022-10-17T07:42:42.815Z,98760.75
2022-10-17T07:45:12.832Z,98761.03
2022-10-17T07:47:42.231Z,98774.41
2022-10-17T07:50:11.793Z,98763.59
2022-10-17T07:52:41.401Z,98760.78
2022-10-17T07:55:12.675Z,98760.25
2022-10-17T07:57:42.096Z,98761.69
2022-10-17T08:00:13.384Z,98766.56
2022-10-17T08:02:42.358Z,98773.25
2022-10-17T08:05:11.488Z,98770.91
2022-10-17T08:07:42.193Z,98761.84
2022-10-17T08:10:15.315Z,98767.53
2022-10-17T08:12:45.763Z,98761.91
2022-10-17T08:15:14.882Z,98767.44
2022-10-17T08:17:44.101Z,98775.78
2022-10-17T08:20:13.480Z,98777.03
2022-10-17T08:22:42.970Z,98780.72
2022-10-17T08:25:15.269Z,98778.38
2022-10-17T08:27:43.926Z,98768.94
2022-10-17T08:30:13.872Z,98780.53
2022-10-17T08:32:43.268Z,98782.91
2022-10-17T08:35:12.484Z,98775.91
2022-10-17T08:37:41.933Z,98774.78
2022-10-17T08:40:23.414Z,98777.69
2022-10-17T08:43:35.342Z,98778.84
2022-10-17T08:46:10.053Z,98786.81
2022-10-17T08:48:46.486Z,98792.56
2022-10-17T08:51:22.930Z,98792.88
2022-10-17T08:53:58.248Z,98796.81
2022-10-17T08:56:48.115Z,98798.38
2022-10-17T08:59:25.117Z,98809.81
2022-10-17T09:02:05.974Z,98811.09
2022-10-17T09:05:01.967Z,98804.72
2022-10-17T09:07:47.766Z,98805.41
2022-10-17T09:10:29.709Z,98819.78
2022-10-17T09:13:23.149Z,98816.41
2022-10-17T09:16:15.493Z,98827.78
2022-10-17T09:18:55.209Z,98831.84
2022-10-17T09:21:34.070Z,98829.63
2022-10-17T09:24:15.760Z,98838.00
2022-10-17T09:26:48.432Z,98839.22
2022-10-17T09:29:24.740Z,98853.84
2022-10-17T09:32:03.884Z,98854.91
2022-10-17T09:34:35.340Z,98843.59
2022-10-17T09:37:07.910Z,98854.97
2022-10-17T09:39:36.658Z,98858.63
2022-10-17T09:42:05.309Z,98854.44
2022-10-17T09:44:40.135Z,98853.03
2022-10-17T09:47:27.296Z,98857.72
2022-10-17T09:49:56.933Z,98868.69
2022-10-17T09:52:33.125Z,98860.59
2022-10-17T09:55:08.176Z,98855.75
2022-10-17T09:57:57.154Z,98869.94
2022-10-17T10:00:32.013Z,98866.31
2022-10-17T10:03:20.896Z,98865.31
2022-10-17T10:06:05.723Z,98868.19
2022-10-17T10:08:39.170Z,98859.47
2022-10-17T10:11:13.789Z,98863.50
2022-10-17T10:13:44.967Z,98862.91
2022-10-17T10:16:34.446Z,98867.19
2022-10-17T10:19:05.847Z,98868.59
2022-10-17T10:21:51.255Z,98860.47
2022-10-17T10:24:20.405Z,98857.44
2022-10-17T10:26:53.055Z,98855.81
2022-10-17T10:29:31.459Z,98856.59
2022-10-17T10:32:11.448Z,98857.00
2022-10-17T10:34:49.944Z,98861.28
2022-10-17T10:37:24.471Z,98856.63
2022-10-17T10:39:57.458Z,98856.59
2022-10-17T10:42:31.159Z,98857.59
2022-10-17T10:45:07.481Z,98865.91
2022-10-17T10:47:39.494Z,98862.63
2022-10-17T10:50:29.396Z,98854.69
2022-10-17T10:53:26.743Z,98854.03
2022-10-17T10:56:01.485Z,98858.69
2022-10-17T10:58:45.162Z,98864.75
2022-10-17T11:01:23.968Z,98870.63
2022-10-17T11:04:23.037Z,98858.00
2022-10-17T11:06:56.466Z,98848.56
2022-10-17T11:09:44.279Z,98853.78
2022-10-17T11:12:23.152Z,98854.97
2022-10-17T11:15:01.790Z,98836.03
2022-10-17T11:17:39.590Z,98849.22
2022-10-17T11:20:23.224Z,98847.81
2022-10-17T11:23:00.169Z,98857.34
2022-10-17T11:25:38.087Z,98868.13
2022-10-17T11:28:16.300Z,98861.78
2022-10-17T11:30:53.006Z,98865.44
2022-10-17T11:33:31.888Z,98856.47
2022-10-17T11:36:09.161Z,98861.53
2022-10-17T11:38:47.011Z,98855.81
2022-10-17T11:41:24.220Z,98856.41
2022-10-17T11:44:00.675Z,98866.56
2022-10-17T11:46:31.096Z,98872.63
2022-10-17T11:49:15.053Z,98853.81
2022-10-17T11:52:00.944Z,98849.88
2022-10-17T11:54:39.153Z,98847.59
2022-10-17T11:57:37.371Z,98850.63
2022-10-17T12:00:26.364Z,98852.25
2022-10-17T12:03:14.804Z,98849.63
2022-10-17T12:05:53.997Z,98843.88
2022-10-17T12:08:34.850Z,98846.31
2022-10-17T12:11:12.445Z,98842.41
2022-10-17T12:13:57.063Z,98850.75
2022-10-17T12:16:49.680Z,98854.38
2022-10-17T12:19:31.063Z,98847.97
2022-10-17T12:22:22.918Z,98847.91
2022-10-17T12:25:02.857Z,98845.41
2022-10-17T12:27:43.832Z,98843.13
2022-10-17T12:30:34.190Z,98843.88
2022-10-17T12:33:23.069Z,98849.69
2022-10-17T12:36:13.500Z,98846.16
2022-10-17T12:38:44.875Z,98850.81
2022-10-17T12:41:17.437Z,98846.88
2022-10-17T12:43:54.374Z,98840.69
2022-10-17T12:46:51.282Z,98853.28
2022-10-17T12:49:53.165Z,98845.81
2022-10-17T12:53:00.980Z,98849.06
2022-10-17T12:55:30.701Z,98844.53
2022-10-17T12:58:04.728Z,98847.75
2022-10-17T13:00:59.464Z,98841.22
2022-10-17T13:03:42.150Z,98845.81
2022-10-17T13:06:24.229Z,98836.38
2022-10-17T13:09:04.127Z,98845.06
2022-10-17T13:11:39.136Z,98836.44
2022-10-17T13:14:15.531Z,98845.78
2022-10-17T13:17:00.276Z,98848.22
2022-10-17T13:19:41.291Z,98851.25
2022-10-17T13:22:17.863Z,98849.16
2022-10-17T13:24:47.568Z,98851.59
2022-10-17T13:27:29.905Z,98850.53
2022-10-17T13:30:02.354Z,98853.56
2022-10-17T13:32:42.641Z,98851.50
2022-10-17T13:35:14.839Z,98845.94
2022-10-17T13:37:51.567Z,98851.41
2022-10-17T13:40:49.517Z,98848.66
2022-10-17T13:43:20.727Z,98857.31
2022-10-17T13:45:54.276Z,98842.91
2022-10-17T13:48:27.418Z,98849.16
2022-10-17T13:51:03.020Z,98853.53
2022-10-17T13:53:35.244Z,98868.63
2022-10-17T13:56:27.416Z,98856.47
2022-10-17T13:58:59.756Z,98853.00
2022-10-17T14:01:31.966Z,98853.84
2022-10-17T14:04:08.876Z,98856.25
2022-10-17T14:06:47.889Z,98854.72
2022-10-17T14:09:25.241Z,98852.25
2022-10-17T14:12:04.949Z,98853.16
2022-10-17T14:14:51.757Z,98841.34
2022-10-17T14:17:29.201Z,98850.38
2022-10-17T14:23:17.483Z,98847.03
2022-10-17T14:25:42.498Z,98851.06
2022-10-17T14:28:18.404Z,98851.06
2022-10-17T14:30:56.881Z,98855.50
2022-10-17T14:33:31.687Z,98862.13
2022-10-17T14:36:04.190Z,98847.66
2022-10-17T14:38:33.145Z,98860.16
2022-10-17T14:41:40.905Z,98851.59
2022-10-17T14:44:04.826Z,98856.56
2022-10-17T14:46:34.051Z,98868.22
2022-10-17T14:49:23.207Z,98864.41
2022-10-17T14:52:27.554Z,98871.59
2022-10-17T14:54:57.316Z,98877.84
2022-10-17T14:57:35.697Z,98877.50
2022-10-17T15:00:05.030Z,98881.22
2022-10-17T15:02:33.766Z,98882.25
2022-10-17T15:05:03.787Z,98889.28
2022-10-17T15:07:32.405Z,98895.91
2022-10-17T15:10:01.134Z,98905.63
2022-10-17T15:12:29.734Z,98909.88
2022-10-17T15:14:58.467Z,98912.78
2022-10-17T15:17:30.234Z,98914.84
2022-10-17T15:19:59.524Z,98910.69
2022-10-17T15:22:31.611Z,98903.78
2022-10-17T15:25:00.411Z,98914.84
2022-10-17T15:27:31.295Z,98922.25
2022-10-17T15:30:00.957Z,98926.88
2022-10-17T15:32:30.017Z,98935.31
2022-10-17T15:34:59.094Z,98932.88
2022-10-17T15:37:35.918Z,98932.50
2022-10-17T15:40:05.801Z,98935.63
2022-10-17T15:42:34.435Z,98933.69
2022-10-17T15:45:02.972Z,98939.44
2022-10-17T15:47:34.919Z,98940.59
2022-10-17T15:50:03.854Z,98939.88
2022-10-17T15:52:33.832Z,98946.22
2022-10-17T15:55:05.132Z,98947.94
2022-10-17T15:57:39.830Z,98942.31
2022-10-17T16:00:17.256Z,98951.66
2022-10-17T16:02:46.515Z,98951.19
2022-10-17T16:05:19.478Z,98950.09
2022-10-17T16:07:50.128Z,98953.41
2022-10-17T16:10:19.897Z,98951.50
2022-10-17T16:12:50.675Z,98958.28
2022-10-17T16:15:24.278Z,98956.53
2022-10-17T16:17:54.579Z,98956.53
2022-10-17T16:20:24.381Z,98960.53
2022-10-17T16:22:59.942Z,98967.31
2022-10-17T16:25:31.060Z,98966.34
2022-10-17T16:28:02.095Z,98960.88
2022-10-17T16:30:33.031Z,98969.03
2022-10-17T16:33:02.476Z,98972.56
2022-10-17T16:35:36.507Z,98976.09
2022-10-17T16:38:08.677Z,98980.88
2022-10-17T16:40:40.382Z,98986.47
2022-10-17T16:43:12.149Z,98996.72
2022-10-17T16:45:42.081Z,99000.00
2022-10-17T16:48:12.396Z,98982.03
2022-10-17T16:50:41.659Z,98993.31
2022-10-17T16:53:11.537Z,98989.06
2022-10-17T16:55:40.114Z,98995.03
2022-10-17T16:58:08.568Z,98997.72
2022-10-17T17:00:37.446Z,98998.16
2022-10-17T17:03:06.863Z,98999.03
2022-10-17T17:05:35.402Z,98992.72
2022-10-17T17:08:04.936Z,98996.06
2022-10-17T17:10:36.982Z,98997.13
2022-10-17T17:13:06.493Z,99007.09
2022-10-17T17:15:35.070Z,99016.69
2022-10-17T17:18:05.838Z,99018.97
2022-10-17T17:20:35.556Z,99027.91
2022-10-17T17:23:04.019Z,99016.75
2022-10-17T17:25:33.039Z,99020.84
2022-10-17T17:28:03.732Z,99032.28
2022-10-17T17:30:33.728Z,99029.25
2022-10-17T17:33:02.914Z,99032.31
2022-10-17T17:35:32.577Z,99034.56
2022-10-17T17:38:03.025Z,99038.44
2022-10-17T17:40:31.479Z,99043.34
2022-10-17T17:45:30.657Z,99041.34
2022-10-17T17:47:59.187Z,99044.59
2022-10-17T17:50:27.840Z,99045.03
2022-10-17T17:52:56.352Z,99048.94
2022-10-17T17:55:24.874Z,99053.84
2022-10-17T17:57:54.097Z,99061.38
2022-10-17T18:00:22.645Z,99065.03
2022-10-17T18:02:52.723Z,99066.69
2022-10-17T18:05:21.690Z,99064.03
2022-10-17T18:07:50.219Z,99065.03
2022-10-17T18:10:18.795Z,99056.72
2022-10-17T18:12:47.362Z,99068.72
2022-10-17T18:15:16.257Z,99076.47
2022-10-17T18:17:44.883Z,99071.16
2022-10-17T18:20:15.062Z,99071.97
2022-10-17T18:22:43.521Z,99066.91
2022-10-17T18:25:12.007Z,99067.94
2022-10-17T18:27:40.574Z,99060.22
2022-10-17T18:30:10.911Z,99061.03
2022-10-17T18:32:40.067Z,99068.38
2022-10-17T18:35:09.056Z,99076.06
2022-10-17T18:40:11.861Z,99077.47
2022-10-17T18:42:43.195Z,99077.47
2022-10-17T18:45:12.452Z,99074.44
2022-10-17T18:47:45.049Z,99080.75
2022-10-17T18:50:13.544Z,99080.97
2022-10-17T18:52:44.606Z,99077.72
2022-10-17T18:55:13.063Z,99070.78
2022-10-17T18:57:41.774Z,99076.31
2022-10-17T19:00:12.159Z,99076.50
2022-10-17T19:02:40.629Z,99081.78
2022-10-17T19:05:10.387Z,99084.84
2022-10-17T19:07:38.892Z,99087.50
2022-10-17T19:10:10.427Z,99087.50
2022-10-17T19:12:39.376Z,99094.78
2022-10-17T19:15:11.376Z,99091.34
2022-10-17T19:17:39.857Z,99092.38
2022-10-17T19:20:10.345Z,99090.72
2022-10-17T19:22:38.792Z,99085.66
2022-10-17T19:25:09.787Z,99090.94
2022-10-17T19:27:39.084Z,99088.09
2022-10-17T19:30:09.479Z,99092.56
2022-10-17T19:32:38.512Z,99091.75
2022-10-17T19:35:12.050Z,99085.66
2022-10-17T19:37:40.560Z,99082.19
2022-10-17T19:40:12.862Z,99077.72
2022-10-17T19:42:41.364Z,99077.94
2022-10-17T19:45:11.340Z,99080.16
2022-10-17T19:47:39.882Z,99076.91
2022-10-17T19:50:09.496Z,99079.34
2022-10-17T19:52:37.963Z,99081.00
2022-10-17T19:55:07.270Z,99083.00
2022-10-17T19:57:37.405Z,99090.75
2022-10-17T20:00:08.770Z,99086.47
2022-10-17T20:02:37.239Z,99084.44
2022-10-17T20:05:18.531Z,99089.50
2022-10-17T20:07:47.528Z,99087.88
2022-10-17T20:10:16.457Z,99082.81
2022-10-17T20:12:46.410Z,99084.84
2022-10-17T20:15:15.100Z,99090.75
2022-10-17T20:17:43.525Z,99077.72
2022-10-17T20:20:12.250Z,99086.69
2022-10-17T20:22:41.559Z,99084.03
2022-10-17T20:25:10.920Z,99076.94
2022-10-17T20:27:39.769Z,99077.13
2022-10-17T20:30:10.988Z,99084.22
2022-10-17T20:32:39.817Z,99081.81
2022-10-17T20:35:09.929Z,99085.47
2022-10-17T20:37:42.516Z,99100.50
2022-10-17T20:43:01.356Z,99100.09
2022-10-17T20:45:45.170Z,99098.44
2022-10-17T20:48:19.939Z,99098.03
2022-10-17T20:50:48.875Z,99102.50
2022-10-17T20:56:12.426Z,99106.78
2022-10-17T20:58:40.963Z,99109.84
2022-10-17T21:01:12.683Z,99109.84
2022-10-17T21:03:45.582Z,99112.66
2022-10-17T21:06:16.809Z,99106.78
2022-10-17T21:08:46.894Z,99114.31
2022-10-17T21:11:17.905Z,99107.59
2022-10-17T21:13:47.827Z,99109.00
2022-10-17T21:16:20.314Z,99106.19
2022-10-17T21:18:49.440Z,99108.00
2022-10-17T21:21:20.966Z,99114.31
2022-10-17T21:23:52.773Z,99119.59
2022-10-17T21:26:22.283Z,99115.13
2022-10-17T21:28:52.293Z,99115.94
2022-10-17T21:31:25.441Z,99110.66
2022-10-17T21:33:56.909Z,99111.66
2022-10-17T21:36:28.431Z,99115.31
2022-10-17T21:38:58.392Z,99112.66
2022-10-17T21:41:29.775Z,99109.41
2022-10-17T21:44:01.996Z,99112.25
2022-10-17T21:46:32.448Z,99109.81
2022-10-17T21:49:03.283Z,99116.75
2022-10-17T21:51:31.940Z,99112.25
2022-10-17T21:54:00.428Z,99111.47
2022-10-17T21:56:30.834Z,99106.19
2022-10-17T21:59:00.550Z,99108.81
2022-10-17T22:01:34.180Z,99106.97
2022-10-17T22:04:07.935Z,99106.19
2022-10-17T22:06:40.992Z,99097.63
2022-10-17T22:09:14.360Z,99102.72
2022-10-17T22:11:47.078Z,99100.47
2022-10-17T22:14:19.465Z,99102.91
2022-10-17T22:16:50.844Z,99099.84
2022-10-17T22:19:22.702Z,99103.31
2022-10-17T22:21:52.284Z,99105.94
2022-10-17T22:24:23.172Z,99102.09
2022-10-17T22:26:52.218Z,99099.44
2022-10-17T22:29:20.762Z,99101.06
2022-10-17T22:31:50.622Z,99099.03
2022-10-17T22:34:19.918Z,99102.72
2022-10-17T22:36:49.033Z,99092.94
2022-10-17T22:39:17.866Z,99081.56
2022-10-17T22:41:46.318Z,99087.66
2022-10-17T22:44:14.840Z,99080.75
2022-10-17T22:46:43.270Z,99085.41
2022-10-17T22:49:14.467Z,99079.31
2022-10-17T22:51:42.979Z,99081.75
2022-10-17T22:54:11.453Z,99078.31
2022-10-17T22:56:40.632Z,99072.00
2022-10-17T22:59:09.120Z,99090.50
2022-10-17T23:01:38.413Z,99088.28
2022-10-17T23:04:08.394Z,99082.78
2022-10-17T23:06:38.286Z,99082.78
2022-10-17T23:09:07.421Z,99081.94
2022-10-17T23:11:35.883Z,99072.41
2022-10-17T23:14:04.345Z,99074.25
2022-10-17T23:16:32.822Z,99064.50
2022-10-17T23:19:01.269Z,99060.22
2022-10-17T23:21:30.105Z,99064.91
2022-10-17T23:23:59.915Z,99058.16
2022-10-17T23:26:28.335Z,99062.63
2022-10-17T23:28:56.879Z,99059.00
2022-10-17T23:31:25.809Z,99055.34
2022-10-17T23:33:54.779Z,99056.16
2022-10-17T23:36:23.440Z,99054.53
2022-10-17T23:38:53.884Z,99051.28
2022-10-17T23:41:26.363Z,99044.78
2022-10-17T23:43:55.136Z,99048.41
2022-10-17T23:46:23.757Z,99046.78
2022-10-17T23:48:52.668Z,99048.63
2022-10-17T23:51:22.087Z,99046.00
2022-10-17T23:53:51.104Z,99049.44
2022-10-17T23:56:19.587Z,99052.06
2022-10-17T23:58:49.456Z,99048.81
